Time;durP1;ratioP1;P1;durP2;ratioP2;P2;SDS_P1;SDS_P2;PMS_P1;PMS_P2;Temp;Humidity;BMP_temperature;BMP_pressure;BME280_temperature;BME280_humidity;BME280_pressure;Samples;Min_cycle;Max_cycle;Signal;HPM_P1;HPM_P2
2021/08/25 00:00:13;;;;;;;6.07;4.93;;;13.80;1.00;14.50;101371.00;;;;4963032;28;20455;-79
2021/08/25 00:02:41;;;;;;;6.93;5.57;;;13.70;1.00;14.50;101361.00;;;;4959601;28;20589;-77
2021/08/25 00:05:11;;;;;;;7.30;4.83;;;13.70;1.00;14.50;101326.00;;;;4961431;28;20484;-79
2021/08/25 00:07:39;;;;;;;7.57;4.87;;;13.70;1.00;14.40;101345.00;;;;4974719;28;20487;-81
2021/08/25 00:10:09;;;;;;;8.40;4.80;;;13.70;1.00;14.40;101356.00;;;;4960206;28;20459;-78
2021/08/25 00:12:37;;;;;;;6.43;4.43;;;13.70;1.00;14.40;101363.00;;;;4961564;28;20817;-78
2021/08/25 00:15:09;;;;;;;5.80;4.43;;;13.60;1.00;14.40;101361.00;;;;4962790;28;20485;-78
2021/08/25 00:17:37;;;;;;;7.20;4.50;;;13.60;1.00;14.30;101363.00;;;;4963407;28;20466;-79
2021/08/25 00:20:07;;;;;;;7.90;5.17;;;13.50;1.00;14.30;101359.00;;;;4960035;28;20463;-77
2021/08/25 00:22:35;;;;;;;8.00;4.77;;;13.60;1.00;14.20;101344.00;;;;4955235;28;20471;-78
2021/08/25 00:25:05;;;;;;;9.80;5.30;;;13.50;1.00;14.20;101349.00;;;;4959688;28;20499;-78
2021/08/25 00:27:33;;;;;;;6.73;4.40;;;13.50;1.00;14.20;101359.00;;;;4957782;28;20465;-77
2021/08/25 00:30:03;;;;;;;6.63;5.00;;;13.50;1.00;14.20;101343.00;;;;4959072;28;20495;-77
2021/08/25 00:32:33;;;;;;;5.73;4.80;;;13.40;1.00;14.10;101339.00;;;;4978378;28;20456;-81
2021/08/25 00:35:01;;;;;;;5.50;4.90;;;13.40;1.00;14.10;101342.00;;;;4968633;28;21399;-79
2021/08/25 00:37:30;;;;;;;5.43;4.47;;;13.40;1.00;14.00;101345.00;;;;4970860;28;20467;-78
2021/08/25 00:39:58;;;;;;;6.43;4.53;;;13.40;1.00;14.10;101335.00;;;;4981360;28;20442;-81
2021/08/25 00:42:27;;;;;;;6.80;4.60;;;13.40;1.00;14.10;101356.00;;;;5001016;28;20432;-76
2021/08/25 00:44:55;;;;;;;7.87;4.90;;;13.40;1.00;14.10;101334.00;;;;4975815;28;20487;-79
2021/08/25 00:47:24;;;;;;;5.17;4.43;;;13.30;1.00;14.00;101335.00;;;;4968383;28;20463;-80
2021/08/25 00:49:53;;;;;;;8.50;4.70;;;13.30;1.00;14.10;101335.00;;;;4960712;28;20482;-79
2021/08/25 00:52:22;;;;;;;7.60;4.83;;;13.30;1.00;14.10;101346.00;;;;4964450;28;20457;-79
2021/08/25 00:54:50;;;;;;;6.60;4.63;;;13.30;1.00;14.00;101345.00;;;;4965319;28;20471;-81
2021/08/25 00:57:18;;;;;;;8.00;4.77;;;13.30;1.00;14.10;101333.00;;;;4967293;28;20448;-78
2021/08/25 00:59:47;;;;;;;5.00;3.83;;;13.30;1.00;14.10;101310.00;;;;4968341;28;20805;-78
2021/08/25 01:02:24;;;;;;;5.63;4.30;;;13.40;1.00;14.10;101325.00;;;;4966298;28;20474;-78
2021/08/25 01:04:56;;;;;;;5.33;3.97;;;13.50;1.00;14.10;101338.00;;;;4970762;28;20865;-80
2021/08/25 01:07:25;;;;;;;5.20;3.90;;;13.60;1.00;14.20;101333.00;;;;4965097;28;20463;-78
2021/08/25 01:09:55;;;;;;;5.27;3.90;;;13.60;1.00;14.20;101286.00;;;;4971994;28;21067;-78
2021/08/25 01:12:25;;;;;;;4.93;4.10;;;13.80;1.00;14.20;101333.00;;;;4970925;28;20557;-77
2021/08/25 01:14:54;;;;;;;5.07;4.07;;;13.80;1.00;14.20;101335.00;;;;4972796;28;20554;-77
2021/08/25 01:17:25;;;;;;;5.20;3.70;;;13.70;1.00;14.30;101334.00;;;;4970074;28;20534;-78
2021/08/25 01:20:04;;;;;;;4.37;3.57;;;13.70;1.00;14.30;101340.00;;;;4969874;28;20973;-80
2021/08/25 01:22:33;;;;;;;5.77;3.73;;;13.80;1.00;14.30;101289.00;;;;4966430;28;20462;-77
2021/08/25 01:25:08;;;;;;;5.40;4.17;;;13.80;1.00;14.30;101320.00;;;;4973218;28;20478;-78
2021/08/25 01:27:43;;;;;;;5.80;3.60;;;13.70;1.00;14.30;101257.00;;;;4987872;28;20498;-79
2021/08/25 01:30:15;;;;;;;7.10;3.83;;;13.80;1.00;14.30;101310.00;;;;4989190;28;20506;-76
2021/08/25 01:32:43;;;;;;;7.43;4.10;;;13.80;1.00;14.30;101315.00;;;;4977946;28;20451;-77
2021/08/25 01:35:12;;;;;;;6.70;3.87;;;13.70;1.00;14.30;101284.00;;;;4976968;28;20474;-77
2021/08/25 01:37:42;;;;;;;7.40;4.00;;;13.70;1.00;14.20;101240.00;;;;4978129;28;20440;-78
2021/08/25 01:40:11;;;;;;;5.27;3.67;;;13.60;1.00;14.20;101302.00;;;;4975118;28;20497;-78
2021/08/25 01:42:43;;;;;;;4.60;3.53;;;13.60;1.00;14.20;101305.00;;;;4981578;28;20464;-77
2021/08/25 01:45:13;;;;;;;4.00;3.33;;;13.60;1.00;14.20;101313.00;;;;4965635;28;20479;-79
2021/08/25 01:47:41;;;;;;;7.10;4.40;;;13.70;1.00;14.20;101301.00;;;;4970383;28;20463;-79
2021/08/25 01:50:11;;;;;;;4.13;3.57;;;13.70;1.00;14.20;101285.00;;;;4968661;28;21131;-78
2021/08/25 01:52:40;;;;;;;4.60;3.63;;;13.70;1.00;14.20;101310.00;;;;4967182;28;20457;-79
2021/08/25 01:55:08;;;;;;;7.03;3.80;;;13.70;1.00;14.20;101247.00;;;;4968800;28;20479;-77
2021/08/25 01:57:37;;;;;;;3.80;3.23;;;13.60;1.00;14.10;101252.00;;;;4968322;28;20461;-77
2021/08/25 02:00:07;;;;;;;6.23;4.10;;;13.60;1.00;14.10;101308.00;;;;4966162;28;20467;-78
2021/08/25 02:02:36;;;;;;;8.47;4.63;;;13.50;1.00;14.10;101306.00;;;;4967189;28;20451;-78
2021/08/25 02:05:06;;;;;;;6.07;3.53;;;13.50;1.00;14.10;101300.00;;;;4964577;28;20538;-77
2021/08/25 02:07:35;;;;;;;7.97;3.40;;;13.50;1.00;14.00;101294.00;;;;4965450;28;20468;-77
2021/08/25 02:10:04;;;;;;;4.87;3.80;;;13.40;1.00;14.00;101300.00;;;;4967131;28;20490;-81
2021/08/25 02:12:32;;;;;;;5.70;3.70;;;13.40;1.00;13.90;101299.00;;;;4968285;28;20447;-77
2021/08/25 02:15:01;;;;;;;4.73;3.83;;;13.30;1.00;13.90;101304.00;;;;4966351;28;20483;-79
2021/08/25 02:17:29;;;;;;;6.37;4.10;;;13.30;1.00;13.90;101300.00;;;;4968794;28;20466;-76
2021/08/25 02:19:59;;;;;;;5.97;3.70;;;13.30;1.00;13.90;101282.00;;;;4965829;28;20455;-78
2021/08/25 02:22:28;;;;;;;5.97;3.63;;;13.20;1.00;13.80;101291.00;;;;4961615;28;20467;-79
2021/08/25 02:24:56;;;;;;;5.80;3.70;;;13.20;1.00;13.80;101292.00;;;;4967740;28;20479;-80
2021/08/25 02:27:24;;;;;;;5.73;3.80;;;13.20;1.00;13.70;101290.00;;;;4967365;28;20470;-81
2021/08/25 02:29:56;;;;;;;5.93;3.10;;;13.20;1.00;13.70;101290.00;;;;4967235;28;20537;-79
2021/08/25 02:32:25;;;;;;;6.43;4.03;;;13.10;1.00;13.70;101290.00;;;;4966663;28;20988;-79
2021/08/25 02:34:54;;;;;;;4.83;3.77;;;13.10;1.00;13.70;101299.00;;;;4967934;28;20561;-78
2021/08/25 02:37:24;;;;;;;7.40;4.30;;;13.10;1.00;13.70;101291.00;;;;4968429;28;20452;-78
2021/08/25 02:39:52;;;;;;;6.73;4.00;;;13.10;1.00;13.70;101232.00;;;;4969464;28;20486;-80
2021/08/25 02:42:20;;;;;;;6.07;4.40;;;13.10;1.00;13.70;101296.00;;;;4968097;28;20458;-77
2021/08/25 02:44:48;;;;;;;4.77;3.27;;;13.00;1.00;13.60;101281.00;;;;4969049;28;20483;-78
2021/08/25 02:47:16;;;;;;;6.83;4.57;;;13.10;1.00;13.60;101274.00;;;;4968943;28;20448;-77
2021/08/25 02:49:45;;;;;;;5.60;3.60;;;13.10;1.00;13.60;101272.00;;;;4970468;28;20476;-80
2021/08/25 02:52:13;;;;;;;5.17;4.10;;;13.10;1.00;13.60;101273.00;;;;4973765;28;20459;-79
2021/08/25 02:54:43;;;;;;;5.37;3.70;;;13.10;1.00;13.60;101274.00;;;;4973495;28;20516;-78
2021/08/25 02:57:11;;;;;;;4.07;3.50;;;13.00;1.00;13.60;101266.00;;;;4971516;28;20459;-77
2021/08/25 02:59:39;;;;;;;6.97;3.90;;;13.00;1.00;13.50;101275.00;;;;4975142;28;20456;-79
2021/08/25 03:02:07;;;;;;;4.93;3.70;;;13.00;1.00;13.50;101265.00;;;;4977451;28;20467;-78
2021/08/25 03:04:36;;;;;;;5.77;3.87;;;12.90;1.00;13.50;101249.00;;;;4987812;28;20525;-79
2021/08/25 03:07:04;;;;;;;6.97;3.80;;;12.90;1.00;13.50;101258.00;;;;4990445;28;20457;-80
2021/08/25 03:09:33;;;;;;;5.50;3.90;;;12.90;1.00;13.50;101258.00;;;;4987330;28;20460;-81
2021/08/25 03:12:03;;;;;;;5.87;3.90;;;12.90;1.00;13.40;101257.00;;;;4998360;28;20455;-78
2021/08/25 03:14:31;;;;;;;8.20;3.33;;;12.90;1.00;13.50;101255.00;;;;4984076;28;20827;-77
2021/08/25 03:17:00;;;;;;;5.43;3.77;;;12.90;1.00;13.40;101259.00;;;;4996952;28;20456;-80
2021/08/25 03:19:28;;;;;;;6.80;3.63;;;12.90;1.00;13.40;101251.00;;;;4982024;28;20470;-77
2021/08/25 03:21:57;;;;;;;5.20;4.00;;;12.90;1.00;13.40;101247.00;;;;4979914;28;20471;-79
2021/08/25 03:24:25;;;;;;;7.53;3.93;;;12.90;1.00;13.40;101235.00;;;;4980326;28;20502;-78
2021/08/25 03:26:53;;;;;;;5.57;3.77;;;12.90;1.00;13.40;101251.00;;;;4978953;28;20470;-79
2021/08/25 03:29:23;;;;;;;5.00;3.60;;;12.90;1.00;13.40;101238.00;;;;4972142;28;20443;-76
2021/08/25 03:31:51;;;;;;;4.67;3.10;;;12.80;1.00;13.40;101245.00;;;;4968762;28;20464;-77
2021/08/25 03:34:19;;;;;;;6.00;3.93;;;12.80;1.00;13.30;101234.00;;;;4968554;28;21008;-78
2021/08/25 03:36:48;;;;;;;7.23;3.30;;;12.80;1.00;13.30;101242.00;;;;4968762;28;20463;-79
2021/08/25 03:39:16;;;;;;;4.23;3.50;;;12.80;1.00;13.30;101236.00;;;;4968100;28;20990;-77
2021/08/25 03:41:44;;;;;;;4.90;3.40;;;12.80;1.00;13.30;101235.00;;;;4969170;28;20452;-77
2021/08/25 03:44:13;;;;;;;4.50;3.83;;;12.80;1.00;13.30;101217.00;;;;4967623;28;20508;-78
2021/08/25 03:46:43;;;;;;;9.77;3.70;;;12.80;1.00;13.30;101217.00;;;;4968210;28;20495;-77
2021/08/25 03:49:11;;;;;;;4.87;3.87;;;12.80;1.00;13.30;101169.00;;;;4964005;28;20498;-77
2021/08/25 03:51:39;;;;;;;5.40;3.10;;;12.70;1.00;13.30;101163.00;;;;4963107;28;20468;-77
2021/08/25 03:54:08;;;;;;;6.20;3.70;;;12.80;1.00;13.30;101233.00;;;;4963339;28;20468;-79
2021/08/25 03:56:36;;;;;;;8.80;3.90;;;12.80;1.00;13.30;101219.00;;;;4966832;28;20451;-78
2021/08/25 03:59:04;;;;;;;5.10;3.60;;;12.80;1.00;13.30;101219.00;;;;4966559;28;20460;-77
2021/08/25 04:01:33;;;;;;;7.80;3.97;;;12.80;1.00;13.30;101211.00;;;;4963380;28;20470;-77
2021/08/25 04:04:06;;;;;;;6.70;4.13;;;12.80;1.00;13.30;101200.00;;;;4966897;28;20511;-79
2021/08/25 04:06:36;;;;;;;6.93;4.00;;;12.70;1.00;13.20;101211.00;;;;4965610;28;20461;-77
2021/08/25 04:09:05;;;;;;;7.27;3.63;;;12.70;1.00;13.20;101218.00;;;;4966347;28;20470;-77
2021/08/25 04:11:34;;;;;;;4.83;3.53;;;12.70;1.00;13.20;101204.00;;;;4966255;28;20476;-78
2021/08/25 04:14:03;;;;;;;8.10;4.10;;;12.70;1.00;13.20;101155.00;;;;4956936;28;20472;-77
2021/08/25 04:16:32;;;;;;;6.60;3.90;;;12.60;1.00;13.10;101224.00;;;;4964057;28;21006;-76
2021/08/25 04:19:01;;;;;;;7.63;3.87;;;12.60;1.00;13.20;101219.00;;;;4967559;28;20466;-79
2021/08/25 04:21:30;;;;;;;5.97;3.80;;;12.60;1.00;13.20;101223.00;;;;4965092;28;20475;-77
2021/08/25 04:23:58;;;;;;;6.10;3.80;;;12.60;1.00;13.20;101207.00;;;;4965395;28;20960;-80
2021/08/25 04:26:26;;;;;;;6.33;3.70;;;12.60;1.00;13.20;101227.00;;;;4966557;28;20464;-78
2021/08/25 04:28:54;;;;;;;7.27;4.17;;;12.60;1.00;13.10;101219.00;;;;4963465;28;20451;-77
2021/08/25 04:31:23;;;;;;;6.70;3.90;;;12.60;1.00;13.10;101216.00;;;;4957894;28;20857;-79
2021/08/25 04:33:51;;;;;;;12.33;4.50;;;12.60;1.00;13.20;101218.00;;;;4967815;28;20518;-78
2021/08/25 04:36:21;;;;;;;9.63;3.77;;;12.60;1.00;13.20;101217.00;;;;4967837;28;20479;-77
2021/08/25 04:38:49;;;;;;;7.93;4.00;;;12.70;1.00;13.20;101217.00;;;;4966127;28;20963;-77
2021/08/25 04:41:17;;;;;;;5.03;3.40;;;12.70;1.00;13.20;101223.00;;;;4964602;28;20502;-76
2021/08/25 04:43:46;;;;;;;9.10;4.00;;;12.80;1.00;13.20;101215.00;;;;4980297;28;20467;-79
2021/08/25 04:46:17;;;;;;;7.60;4.30;;;12.70;1.00;13.20;101227.00;;;;4979855;28;20478;-81
2021/08/25 04:48:45;;;;;;;8.37;3.23;;;12.70;1.00;13.20;101215.00;;;;4957863;28;20470;-78
2021/08/25 04:51:14;;;;;;;7.83;4.23;;;12.70;1.00;13.20;101213.00;;;;4966761;28;20480;-77
2021/08/25 04:53:44;;;;;;;6.43;3.97;;;12.90;1.00;13.30;101208.00;;;;4966327;28;20525;-80
2021/08/25 04:56:12;;;;;;;6.43;4.10;;;12.70;1.00;13.30;101201.00;;;;4968417;28;20463;-78
2021/08/25 04:58:41;;;;;;;5.97;3.97;;;12.70;1.00;13.30;101213.00;;;;4962500;28;20542;-78
2021/08/25 05:01:09;;;;;;;11.63;3.80;;;12.80;1.00;13.40;101214.00;;;;4966112;28;20455;-79
2021/08/25 05:03:38;;;;;;;6.53;4.20;;;12.80;1.00;13.40;101219.00;;;;4967138;28;20463;-81
2021/08/25 05:06:08;;;;;;;6.97;3.90;;;12.90;1.00;13.50;101208.00;;;;4965685;28;20889;-78
2021/08/25 05:08:38;;;;;;;8.20;3.53;;;13.00;1.00;13.60;101205.00;;;;4966436;28;20468;-77
2021/08/25 05:11:09;;;;;;;6.87;4.80;;;13.00;1.00;13.70;101208.00;;;;4963408;28;20474;-77
2021/08/25 05:13:38;;;;;;;10.60;4.03;;;13.10;1.00;13.80;101188.00;;;;4965255;28;20444;-78
2021/08/25 05:16:11;;;;;;;6.37;3.37;;;13.30;1.00;13.80;101204.00;;;;4964099;28;20448;-78
2021/08/25 05:18:39;;;;;;;8.27;3.43;;;13.20;1.00;13.90;101207.00;;;;4965144;28;21129;-80
2021/08/25 05:21:08;;;;;;;5.23;4.20;;;13.30;1.00;14.00;101210.00;;;;4964524;28;20459;-78
2021/08/25 05:23:37;;;;;;;7.90;4.13;;;13.30;1.00;14.00;101213.00;;;;4966059;28;20526;-77
2021/08/25 05:26:07;;;;;;;4.57;3.40;;;13.40;1.00;14.10;101199.00;;;;4966829;28;20452;-80
2021/08/25 05:28:36;;;;;;;6.00;3.43;;;13.40;1.00;14.10;101214.00;;;;4968831;28;20460;-80
2021/08/25 05:31:04;;;;;;;6.63;4.00;;;13.50;1.00;14.20;101209.00;;;;4960688;28;20960;-81
2021/08/25 05:33:33;;;;;;;10.30;3.77;;;13.50;1.00;14.20;101216.00;;;;4967253;28;20987;-79
2021/08/25 05:36:01;;;;;;;6.77;3.70;;;13.50;1.00;14.30;101208.00;;;;4984097;28;20474;-80
2021/08/25 05:38:30;;;;;;;10.83;4.30;;;13.60;1.00;14.40;101218.00;;;;4990072;28;20466;-82
2021/08/25 05:40:58;;;;;;;7.53;3.93;;;13.70;1.00;14.40;101223.00;;;;4989895;28;20443;-81
2021/08/25 05:43:28;;;;;;;7.53;3.57;;;13.70;1.00;14.50;101216.00;;;;4995695;28;20530;-81
2021/08/25 05:45:56;;;;;;;17.87;5.20;;;13.80;1.00;14.50;101214.00;;;;4996895;28;20482;-81
2021/08/25 05:48:25;;;;;;;6.67;3.20;;;13.90;1.00;14.60;101206.00;;;;4987518;28;20518;-77
2021/08/25 05:50:53;;;;;;;8.33;4.47;;;13.90;1.00;14.60;101200.00;;;;4973087;28;20468;-78
2021/08/25 05:53:21;;;;;;;7.80;4.00;;;14.00;1.00;14.60;101217.00;;;;4971214;28;20455;-77
2021/08/25 05:55:50;;;;;;;7.80;3.63;;;14.00;1.00;14.70;101221.00;;;;4975342;28;20478;-79
2021/08/25 05:58:18;;;;;;;7.67;3.80;;;14.10;1.00;14.90;101200.00;;;;4974118;28;20463;-78
2021/08/25 06:00:48;;;;;;;11.80;3.50;;;14.10;1.00;14.90;101221.00;;;;4971678;28;20452;-78
2021/08/25 06:03:17;;;;;;;7.37;3.60;;;14.20;1.00;15.10;101217.00;;;;4972320;28;20846;-79
2021/08/25 06:05:45;;;;;;;9.80;4.13;;;14.30;1.00;15.10;101216.00;;;;4965748;28;20475;-79
2021/08/25 06:08:14;;;;;;;5.20;3.67;;;14.40;1.00;15.10;101213.00;;;;4980227;28;20551;-79
2021/08/25 06:10:42;;;;;;;9.13;4.00;;;14.40;1.00;15.10;101173.00;;;;4979195;28;20862;-79
2021/08/25 06:13:10;;;;;;;5.80;3.80;;;14.40;1.00;15.10;101209.00;;;;4979474;28;20476;-78
2021/08/25 06:15:39;;;;;;;8.33;3.87;;;14.40;1.00;15.20;101215.00;;;;4977185;28;20567;-81
2021/08/25 06:18:08;;;;;;;7.47;3.97;;;14.50;1.00;15.30;101208.00;;;;4976050;28;20463;-82
2021/08/25 06:20:37;;;;;;;11.03;4.23;;;14.60;1.00;15.40;101216.00;;;;4974904;28;20566;-80
2021/08/25 06:23:05;;;;;;;6.57;3.80;;;14.70;1.00;15.40;101208.00;;;;4970098;28;20456;-79
2021/08/25 06:25:34;;;;;;;5.10;3.50;;;14.70;1.00;15.50;101211.00;;;;4972859;28;20483;-77
2021/08/25 06:28:03;;;;;;;5.83;3.37;;;14.80;1.00;15.50;101209.00;;;;4987411;28;20462;-77
2021/08/25 06:30:31;;;;;;;6.60;3.80;;;14.80;1.00;15.50;101186.00;;;;4968515;28;20447;-79
2021/08/25 06:32:59;;;;;;;6.90;4.00;;;14.80;1.00;15.50;101212.00;;;;4972955;28;20483;-79
2021/08/25 06:35:29;;;;;;;5.93;3.77;;;14.90;1.00;15.70;101217.00;;;;4971938;28;21398;-80
2021/08/25 06:37:58;;;;;;;7.53;3.57;;;15.00;1.00;15.70;101211.00;;;;4970959;28;20448;-77
2021/08/25 06:40:26;;;;;;;8.43;4.20;;;15.10;1.00;15.70;101207.00;;;;4972951;28;20455;-79
2021/08/25 06:42:54;;;;;;;8.27;3.83;;;15.10;1.00;15.80;101203.00;;;;4970927;28;20468;-77
2021/08/25 06:45:23;;;;;;;5.87;3.70;;;15.30;1.00;15.90;101206.00;;;;4967430;28;20491;-78
2021/08/25 06:47:51;;;;;;;8.13;3.30;;;15.20;1.00;15.90;101206.00;;;;4970253;28;20565;-78
2021/08/25 06:50:19;;;;;;;5.70;3.37;;;15.20;1.00;16.00;101216.00;;;;4969297;28;20471;-78
2021/08/25 06:52:49;;;;;;;9.60;4.00;;;15.30;1.00;16.00;101205.00;;;;4970332;28;20479;-80
2021/08/25 06:55:18;;;;;;;6.20;4.37;;;15.40;1.00;16.00;101207.00;;;;4970720;28;20930;-79
2021/08/25 06:57:46;;;;;;;9.03;3.73;;;15.50;1.00;16.10;101228.00;;;;4964778;28;20458;-79
2021/08/25 07:00:18;;;;;;;6.10;3.60;;;15.60;1.00;16.20;101221.00;;;;4973798;28;20787;-78
2021/08/25 07:02:46;;;;;;;8.20;4.90;;;15.60;1.00;16.40;101208.00;;;;4990373;28;21012;-77
2021/08/25 07:05:15;;;;;;;6.03;3.40;;;15.80;1.00;16.50;101206.00;;;;4969913;28;20526;-78
2021/08/25 07:07:43;;;;;;;8.13;3.57;;;15.90;1.00;16.50;101197.00;;;;4969975;28;20828;-79
2021/08/25 07:10:14;;;;;;;5.27;3.70;;;15.90;1.00;16.50;101161.00;;;;4970160;28;20837;-79
2021/08/25 07:12:42;;;;;;;7.23;4.13;;;16.00;1.00;16.60;101212.00;;;;4970475;28;21521;-78
2021/08/25 07:15:16;;;;;;;5.00;3.53;;;16.10;1.00;16.60;101197.00;;;;4969378;28;20514;-77
2021/08/25 07:17:45;;;;;;;9.03;3.63;;;16.20;1.00;16.80;101192.00;;;;4971191;28;20451;-79
2021/08/25 07:20:15;;;;;;;6.57;3.63;;;16.30;1.00;16.80;101205.00;;;;4983762;28;20439;-77
2021/08/25 07:22:44;;;;;;;5.47;3.10;;;16.40;1.00;16.90;101198.00;;;;4984318;28;20475;-79
2021/08/25 07:25:14;;;;;;;10.27;5.50;;;16.40;1.00;16.90;101197.00;;;;4980640;28;20479;-78
2021/08/25 07:27:42;;;;;;;6.83;4.20;;;16.50;1.00;17.00;101198.00;;;;4973133;28;20571;-78
2021/08/25 07:30:13;;;;;;;10.07;5.40;;;16.60;1.00;17.10;101189.00;;;;4981835;28;20459;-80
2021/08/25 07:32:41;;;;;;;9.23;4.10;;;16.70;1.00;17.30;101189.00;;;;4970469;28;21461;-78
2021/08/25 07:35:12;;;;;;;8.63;3.87;;;16.80;1.00;17.30;101194.00;;;;4968916;28;20493;-79
2021/08/25 07:37:41;;;;;;;4.80;3.90;;;17.00;1.00;17.40;101187.00;;;;4983798;28;21064;-77
2021/08/25 07:40:11;;;;;;;6.30;4.10;;;17.10;1.00;17.50;101187.00;;;;4970042;28;20459;-77
2021/08/25 07:42:41;;;;;;;8.20;4.03;;;17.10;1.00;17.60;101182.00;;;;4966467;28;20460;-77
2021/08/25 07:45:11;;;;;;;5.43;3.83;;;17.30;1.00;17.70;101190.00;;;;4962229;28;21067;-77
2021/08/25 07:47:39;;;;;;;7.30;4.00;;;17.30;1.00;17.70;101197.00;;;;4970530;28;21147;-77
2021/08/25 07:50:09;;;;;;;10.07;4.87;;;17.40;1.00;17.90;101189.00;;;;4966276;28;20459;-80
2021/08/25 07:52:38;;;;;;;8.33;3.90;;;17.40;1.00;17.80;101177.00;;;;4964170;28;20493;-80
2021/08/25 07:55:07;;;;;;;6.83;3.87;;;17.50;1.00;17.90;101192.00;;;;4971442;28;20460;-78
2021/08/25 07:57:36;;;;;;;8.10;4.30;;;17.60;1.00;18.00;101197.00;;;;4970338;28;20467;-79
2021/08/25 08:00:07;;;;;;;5.07;3.50;;;17.60;1.00;18.00;101188.00;;;;4970980;28;20459;-80
2021/08/25 08:02:35;;;;;;;6.57;4.10;;;17.70;1.00;18.10;101186.00;;;;4955464;28;20464;-76
2021/08/25 08:05:07;;;;;;;6.93;4.00;;;17.80;1.00;18.20;101167.00;;;;4972540;28;20475;-79
2021/08/25 08:07:35;;;;;;;10.90;6.97;;;17.90;1.00;18.30;101176.00;;;;4988862;28;20525;-79
2021/08/25 08:10:05;;;;;;;8.33;5.30;;;18.00;1.00;18.40;101180.00;;;;4978921;28;20459;-77
2021/08/25 08:12:33;;;;;;;7.00;4.80;;;18.10;1.00;18.40;101171.00;;;;4992342;28;20471;-77
2021/08/25 08:15:04;;;;;;;5.10;3.57;;;18.10;1.00;18.40;101159.00;;;;4988135;28;21390;-77
2021/08/25 08:17:35;;;;;;;6.03;3.63;;;18.20;1.00;18.50;101155.00;;;;4974820;28;20462;-78
2021/08/25 08:20:04;;;;;;;6.13;3.20;;;18.30;1.00;18.50;101125.00;;;;4971197;28;20536;-77
2021/08/25 08:22:32;;;;;;;4.23;3.30;;;18.40;1.00;18.60;101176.00;;;;4969680;28;20510;-78
2021/08/25 08:25:01;;;;;;;7.63;3.83;;;18.50;1.00;18.70;101188.00;;;;4970092;28;21028;-77
2021/08/25 08:27:30;;;;;;;10.57;4.60;;;18.60;1.00;18.70;101180.00;;;;4970809;28;20509;-78
2021/08/25 08:29:58;;;;;;;5.20;3.67;;;18.60;1.00;18.70;101171.00;;;;4970892;28;20491;-78
2021/08/25 08:32:26;;;;;;;12.00;4.57;;;18.60;1.00;18.70;101177.00;;;;4969089;28;20479;-79
2021/08/25 08:34:56;;;;;;;6.60;3.90;;;18.60;1.00;18.80;101137.00;;;;4972075;28;20485;-80
2021/08/25 08:37:25;;;;;;;4.43;3.50;;;18.80;1.00;19.00;101174.00;;;;4968340;28;20475;-79
2021/08/25 08:39:53;;;;;;;6.50;4.03;;;18.80;1.00;19.00;101168.00;;;;4972016;28;20518;-82
2021/08/25 08:42:27;;;;;;;8.27;3.97;;;18.90;1.00;19.00;101181.00;;;;4975630;28;20469;-78
2021/08/25 08:44:57;;;;;;;5.00;3.63;;;18.90;1.00;19.00;101182.00;;;;4985965;28;20570;-77
2021/08/25 08:47:27;;;;;;;5.70;3.40;;;19.00;1.00;19.10;101177.00;;;;4983371;28;20496;-78
2021/08/25 08:49:59;;;;;;;6.70;4.03;;;19.10;1.00;19.20;101149.00;;;;4986532;28;20560;-79
2021/08/25 08:52:28;;;;;;;5.50;4.10;;;19.20;1.00;19.30;101170.00;;;;4983009;28;20555;-77
2021/08/25 08:54:58;;;;;;;7.87;4.27;;;19.30;1.00;19.40;101178.00;;;;4983428;28;20481;-78
2021/08/25 08:57:27;;;;;;;4.60;3.70;;;19.40;1.00;19.50;101177.00;;;;4980187;28;20487;-78
2021/08/25 08:59:55;;;;;;;7.90;4.17;;;19.50;1.00;19.50;101181.00;;;;4974929;28;20459;-79
2021/08/25 09:02:40;;;;;;;9.33;5.97;;;19.60;1.00;19.60;101155.00;;;;4979727;28;20478;-78
2021/08/25 09:05:30;;;;;;;5.40;3.73;;;19.70;1.00;19.60;101159.00;;;;4985266;28;20486;-79
2021/08/25 09:08:01;;;;;;;6.13;4.20;;;19.70;1.00;19.60;101164.00;;;;4985655;28;20455;-78
2021/08/25 09:10:32;;;;;;;7.53;3.73;;;19.70;1.00;19.70;101152.00;;;;4981384;28;20479;-79
2021/08/25 09:13:04;;;;;;;6.20;3.93;;;19.90;1.00;19.80;101153.00;;;;4982204;28;20487;-77
2021/08/25 09:15:35;;;;;;;6.60;5.23;;;20.00;1.00;19.90;101142.00;;;;4986328;28;20474;-77
2021/08/25 09:18:06;;;;;;;6.17;4.33;;;19.90;1.00;19.90;101151.00;;;;4981232;28;20526;-78
2021/08/25 09:20:41;;;;;;;6.67;4.30;;;20.00;1.00;19.90;101145.00;;;;4970945;28;21247;-78
2021/08/25 09:23:15;;;;;;;7.70;5.70;;;20.10;1.00;19.90;101146.00;;;;4970577;28;20451;-79
2021/08/25 09:25:44;;;;;;;8.87;7.10;;;20.10;1.00;20.10;101099.00;;;;4967844;28;20487;-80
2021/08/25 09:28:15;;;;;;;8.37;5.47;;;20.10;1.00;20.20;101147.00;;;;4966256;28;22088;-80
2021/08/25 09:30:51;;;;;;;4.97;3.80;;;20.40;1.00;20.30;101146.00;;;;4972983;28;20451;-78
2021/08/25 09:33:21;;;;;;;8.63;4.80;;;20.50;1.00;20.30;101149.00;;;;4967673;28;20599;-78
2021/08/25 09:35:52;;;;;;;5.20;3.63;;;20.50;1.00;20.40;101136.00;;;;4973114;28;20851;-79
2021/08/25 09:38:22;;;;;;;5.30;4.13;;;20.50;1.00;20.40;101128.00;;;;4973060;28;20512;-77
2021/08/25 09:40:54;;;;;;;6.50;4.23;;;20.50;1.00;20.40;101140.00;;;;4975632;28;20474;-78
2021/08/25 09:43:41;;;;;;;6.50;4.70;;;20.40;1.00;20.50;101134.00;;;;4977664;28;20545;-78
2021/08/25 09:46:21;;;;;;;10.33;8.20;;;20.60;1.00;20.50;101141.00;;;;4987765;28;20455;-81
2021/08/25 09:48:53;;;;;;;14.53;11.93;;;20.70;1.00;20.50;101112.00;;;;4983951;28;20463;-80
2021/08/25 09:51:25;;;;;;;9.10;3.70;;;20.70;1.00;20.60;101124.00;;;;4977544;28;20458;-80
2021/08/25 09:54:06;;;;;;;5.90;5.00;;;20.80;1.00;20.70;101125.00;;;;4974405;28;20493;-79
2021/08/25 09:56:37;;;;;;;5.17;4.13;;;20.90;1.00;20.70;101100.00;;;;4973096;28;20443;-78
2021/08/25 09:59:08;;;;;;;6.10;4.60;;;20.80;1.00;20.70;101118.00;;;;4973133;28;20612;-80
2021/08/25 10:01:37;;;;;;;6.20;4.20;;;20.90;1.00;20.80;101121.00;;;;4973336;28;20507;-80
2021/08/25 10:04:07;;;;;;;6.33;4.73;;;21.10;1.00;20.80;101111.00;;;;4977415;28;20467;-80
2021/08/25 10:06:39;;;;;;;10.03;5.17;;;21.20;1.00;21.00;101100.00;;;;4977290;28;20440;-80
2021/08/25 10:09:09;;;;;;;5.83;4.37;;;21.30;1.00;21.20;101113.00;;;;4976989;28;20459;-80
2021/08/25 10:11:40;;;;;;;6.50;4.30;;;21.50;1.00;21.30;101108.00;;;;4984124;28;20538;-80
2021/08/25 10:14:11;;;;;;;5.50;4.43;;;21.50;1.00;21.50;101100.00;;;;4984794;28;20562;-80
2021/08/25 10:16:43;;;;;;;7.03;4.43;;;21.70;1.00;21.60;101113.00;;;;4974869;28;20521;-80
2021/08/25 10:19:36;;;;;;;5.57;3.83;;;21.90;1.00;21.60;101095.00;;;;4986662;28;20491;-81
2021/08/25 10:22:25;;;;;;;5.43;4.43;;;21.90;1.00;21.70;101069.00;;;;4995280;28;20523;-79
2021/08/25 10:25:06;;;;;;;7.23;4.63;;;21.90;1.00;21.80;101085.00;;;;4996100;28;20498;-79
2021/08/25 10:28:02;;;;;;;5.77;4.00;;;22.00;1.00;21.50;101095.00;;;;4992096;28;21272;-80
2021/08/25 10:30:31;;;;;;;5.80;4.60;;;21.70;1.00;21.30;101078.00;;;;4992303;28;20459;-80
2021/08/25 10:33:10;;;;;;;7.33;4.30;;;21.30;1.00;21.10;101091.00;;;;4996035;28;20518;-80
2021/08/25 10:35:42;;;;;;;4.60;3.90;;;21.10;1.00;21.40;101079.00;;;;4976450;28;20479;-80
2021/08/25 10:38:28;;;;;;;5.47;4.07;;;21.40;1.00;21.40;101082.00;;;;4979383;28;20451;-80
2021/08/25 10:41:02;;;;;;;6.60;4.60;;;21.50;1.00;21.60;101072.00;;;;4978154;28;20522;-80
2021/08/25 10:43:45;;;;;;;6.20;3.97;;;21.60;1.00;21.70;101016.00;;;;4976371;28;20472;-80
2021/08/25 10:46:14;;;;;;;4.50;3.90;;;21.80;1.00;21.50;101062.00;;;;4994868;28;20447;-79
2021/08/25 10:48:56;;;;;;;6.03;4.30;;;21.50;1.00;21.30;101054.00;;;;4977824;28;20559;-78
2021/08/25 10:51:40;;;;;;;7.70;4.80;;;21.30;1.00;21.70;101065.00;;;;4979940;28;20452;-79
2021/08/25 10:54:14;;;;;;;5.53;4.17;;;21.70;1.00;21.70;101052.00;;;;4977765;28;20521;-79
2021/08/25 10:56:47;;;;;;;5.30;4.20;;;21.90;1.00;22.00;101013.00;;;;4986212;28;21076;-81
2021/08/25 10:59:21;;;;;;;10.33;4.90;;;22.10;1.00;22.30;101023.00;;;;4988047;28;20456;-79
2021/08/25 11:01:55;;;;;;;5.90;3.90;;;22.60;1.00;22.40;101042.00;;;;4979256;28;20487;-79
2021/08/25 11:04:24;;;;;;;6.10;3.73;;;22.60;1.00;22.40;101019.00;;;;4984912;28;20486;-78
2021/08/25 11:06:55;;;;;;;4.47;4.00;;;22.60;1.00;22.20;101047.00;;;;4992600;28;20428;-78